Time;durP1;ratioP1;P1;durP2;ratioP2;P2;SDS_P1;SDS_P2;PMS_P1;PMS_P2;Temp;Humidity;BMP_temperature;BMP_pressure;BME280_temperature;BME280_humidity;BME280_pressure;Samples;Min_cycle;Max_cycle;Signal;HPM_P1;HPM_P2
2023/07/14 00:01:21;;;;;;;5.57;4.00;;;16.90;99.90;;;;;;4987280;28;21591;-76
2023/07/14 00:03:49;;;;;;;5.87;3.80;;;16.90;99.90;;;;;;5005273;28;20235;-75
2023/07/14 00:06:17;;;;;;;6.27;4.60;;;16.90;99.90;;;;;;5002980;28;20198;-77
2023/07/14 00:08:45;;;;;;;5.27;4.30;;;16.90;99.90;;;;;;5016098;28;20682;-77
2023/07/14 00:11:21;;;;;;;7.00;4.40;;;16.90;99.90;;;;;;5014747;28;20284;-75
2023/07/14 00:13:49;;;;;;;9.10;4.67;;;16.80;99.90;;;;;;5005465;28;20313;-76
2023/07/14 00:16:19;;;;;;;4.77;4.10;;;16.80;99.90;;;;;;5011021;28;20214;-76
2023/07/14 00:18:46;;;;;;;5.73;4.27;;;16.80;99.90;;;;;;5014132;28;20226;-75
2023/07/14 00:21:19;;;;;;;6.10;4.13;;;16.70;99.90;;;;;;5017041;28;20217;-78
2023/07/14 00:23:45;;;;;;;5.03;3.93;;;16.80;99.90;;;;;;4990948;28;20211;-77
2023/07/14 00:26:19;;;;;;;6.30;4.10;;;16.70;99.90;;;;;;5018378;28;20274;-77
2023/07/14 00:28:50;;;;;;;6.80;4.00;;;16.70;99.90;;;;;;5021557;28;20261;-75
2023/07/14 00:31:19;;;;;;;5.20;3.97;;;16.70;99.90;;;;;;5017658;28;20215;-77
2023/07/14 00:33:49;;;;;;;5.83;4.30;;;16.70;99.90;;;;;;5006529;28;20597;-76
2023/07/14 00:36:19;;;;;;;7.07;4.07;;;16.60;99.90;;;;;;5003586;28;20663;-75
2023/07/14 00:38:46;;;;;;;5.90;3.87;;;16.60;99.90;;;;;;5021197;28;20241;-76
2023/07/14 00:41:23;;;;;;;6.70;3.80;;;16.60;99.90;;;;;;5027027;28;20198;-75
2023/07/14 00:43:51;;;;;;;4.90;3.90;;;16.50;99.90;;;;;;5023877;28;20205;-75
2023/07/14 00:46:28;;;;;;;5.87;4.30;;;16.50;99.90;;;;;;5004894;28;20210;-76
2023/07/14 00:48:59;;;;;;;5.40;4.00;;;16.50;99.90;;;;;;5030097;28;20668;-76
2023/07/14 00:51:30;;;;;;;5.17;3.90;;;16.40;99.90;;;;;;5027795;28;20603;-75
2023/07/14 00:53:57;;;;;;;6.40;4.00;;;16.40;99.90;;;;;;5025679;28;20218;-75
2023/07/14 00:56:34;;;;;;;7.57;4.50;;;16.40;99.90;;;;;;5028723;28;20675;-76
2023/07/14 00:59:02;;;;;;;6.03;4.37;;;16.50;99.90;;;;;;5009046;28;20256;-76
2023/07/14 01:01:31;;;;;;;5.97;4.27;;;16.40;99.90;;;;;;5030189;28;20684;-77
2023/07/14 01:03:59;;;;;;;6.87;4.77;;;16.40;99.90;;;;;;5024662;28;20297;-76
2023/07/14 01:06:32;;;;;;;7.57;4.30;;;16.50;99.90;;;;;;5022995;28;20277;-76
2023/07/14 01:09:12;;;;;;;8.10;4.40;;;16.50;99.90;;;;;;5016716;28;20573;-75
2023/07/14 01:11:47;;;;;;;5.10;3.80;;;16.50;99.90;;;;;;5028014;28;20360;-75
2023/07/14 01:14:39;;;;;;;6.47;4.37;;;16.50;99.90;;;;;;5029764;28;20214;-76
2023/07/14 01:17:07;;;;;;;8.53;4.30;;;16.60;99.90;;;;;;5024562;28;20226;-76
2023/07/14 01:19:48;;;;;;;4.90;4.30;;;16.60;99.90;;;;;;5024086;28;20221;-76
2023/07/14 01:22:27;;;;;;;5.77;4.03;;;16.60;99.90;;;;;;5026417;28;20206;-76
2023/07/14 01:25:18;;;;;;;7.50;4.87;;;16.60;99.90;;;;;;5028033;28;20638;-75
2023/07/14 01:27:48;;;;;;;8.53;4.07;;;16.70;99.90;;;;;;5006021;28;20324;-76
2023/07/14 01:30:16;;;;;;;8.37;4.27;;;16.70;99.90;;;;;;5029281;28;20670;-75
2023/07/14 01:32:49;;;;;;;7.43;4.13;;;16.70;99.90;;;;;;5026582;28;20203;-76
2023/07/14 01:35:18;;;;;;;6.20;4.40;;;16.70;99.90;;;;;;5010933;28;20276;-76
2023/07/14 01:37:45;;;;;;;8.47;4.80;;;16.60;99.90;;;;;;5023188;28;20628;-75
2023/07/14 01:40:17;;;;;;;6.23;4.40;;;16.60;99.90;;;;;;5025394;28;20238;-75
2023/07/14 01:43:00;;;;;;;6.90;3.93;;;16.60;99.90;;;;;;5026022;28;20230;-76
2023/07/14 01:45:34;;;;;;;6.73;4.47;;;16.50;99.90;;;;;;5027557;28;20225;-75
2023/07/14 01:48:02;;;;;;;7.37;4.43;;;16.50;99.90;;;;;;5027303;28;20300;-75
2023/07/14 01:50:42;;;;;;;6.17;4.43;;;16.40;99.90;;;;;;5008964;28;20572;-77
2023/07/14 01:53:22;;;;;;;7.87;4.60;;;16.40;99.90;;;;;;5015071;28;20202;-75
2023/07/14 01:55:51;;;;;;;7.63;4.30;;;16.30;99.90;;;;;;5021647;28;20327;-77
2023/07/14 01:58:27;;;;;;;9.13;5.07;;;16.30;99.90;;;;;;5027950;28;20249;-76
2023/07/14 02:00:56;;;;;;;6.23;4.47;;;16.30;99.90;;;;;;5007973;28;20213;-76
2023/07/14 02:03:37;;;;;;;5.73;4.60;;;16.20;99.90;;;;;;5023236;28;20237;-75
2023/07/14 02:06:04;;;;;;;9.27;4.80;;;16.20;99.90;;;;;;5022420;28;20662;-75
2023/07/14 02:08:32;;;;;;;5.97;4.50;;;16.20;99.90;;;;;;5027899;28;20206;-76
2023/07/14 02:10:59;;;;;;;8.27;5.03;;;16.20;99.90;;;;;;5028127;28;20211;-75
2023/07/14 02:13:27;;;;;;;8.23;5.10;;;16.10;99.90;;;;;;5010377;28;20318;-75
2023/07/14 02:15:55;;;;;;;7.80;4.57;;;16.10;99.90;;;;;;5028454;28;20237;-76
2023/07/14 02:18:27;;;;;;;7.10;4.93;;;16.10;99.90;;;;;;5028340;28;20686;-76
2023/07/14 02:20:55;;;;;;;7.80;5.00;;;16.00;99.90;;;;;;5008699;28;20206;-75
2023/07/14 02:23:25;;;;;;;8.63;5.03;;;16.00;99.90;;;;;;5033337;28;20213;-75
2023/07/14 02:26:27;;;;;;;5.70;4.53;;;16.00;99.90;;;;;;4999603;28;20297;-75
2023/07/14 02:28:57;;;;;;;6.20;4.67;;;16.00;99.90;;;;;;5020833;28;20674;-77
2023/07/14 02:31:32;;;;;;;7.80;5.37;;;15.90;99.90;;;;;;5030272;28;20224;-76
2023/07/14 02:33:59;;;;;;;8.10;5.43;;;15.90;99.90;;;;;;5004658;28;20767;-77
2023/07/14 02:36:55;;;;;;;10.50;5.70;;;15.90;99.90;;;;;;5024719;28;20561;-77
2023/07/14 02:39:22;;;;;;;9.30;5.20;;;16.00;99.90;;;;;;5026698;28;20260;-75
2023/07/14 02:41:53;;;;;;;6.37;4.50;;;16.00;99.90;;;;;;5025262;28;20275;-75
2023/07/14 02:44:26;;;;;;;8.03;4.87;;;16.10;99.90;;;;;;5026886;28;20229;-77
2023/07/14 02:47:10;;;;;;;8.23;5.23;;;16.10;99.90;;;;;;5025948;28;20232;-77
2023/07/14 02:49:37;;;;;;;8.90;4.87;;;16.10;99.90;;;;;;5015513;28;20202;-76
2023/07/14 02:52:04;;;;;;;6.93;5.30;;;16.20;99.90;;;;;;5027376;28;20206;-76
2023/07/14 02:54:33;;;;;;;9.43;5.37;;;16.20;99.90;;;;;;5024698;28;20684;-76
2023/07/14 02:56:59;;;;;;;6.60;4.97;;;16.30;99.90;;;;;;5022630;28;20233;-75
2023/07/14 02:59:26;;;;;;;9.03;5.67;;;16.30;99.90;;;;;;5026030;28;20236;-77
2023/07/14 03:01:53;;;;;;;6.70;4.93;;;16.30;99.90;;;;;;5017324;28;20233;-77
2023/07/14 03:04:21;;;;;;;9.03;5.40;;;16.30;99.90;;;;;;5002243;28;20626;-75
2023/07/14 03:06:48;;;;;;;7.23;5.13;;;16.40;99.90;;;;;;5023642;28;20253;-75
2023/07/14 03:09:16;;;;;;;7.23;5.73;;;16.40;99.90;;;;;;5020860;28;20293;-76
2023/07/14 03:11:43;;;;;;;8.70;5.33;;;16.40;99.90;;;;;;5005080;28;20249;-76
2023/07/14 03:14:10;;;;;;;7.50;5.10;;;16.40;99.90;;;;;;5027609;28;20209;-77
2023/07/14 03:16:37;;;;;;;10.63;5.30;;;16.40;99.90;;;;;;5025990;28;20573;-76
2023/07/14 03:19:04;;;;;;;7.70;5.80;;;16.50;99.90;;;;;;5010245;28;20225;-76
2023/07/14 03:21:31;;;;;;;8.23;5.83;;;16.50;99.90;;;;;;5001466;28;20203;-76
2023/07/14 03:23:58;;;;;;;7.03;4.90;;;16.50;99.90;;;;;;5028749;28;20286;-76
2023/07/14 03:26:25;;;;;;;6.87;5.17;;;16.50;99.90;;;;;;5031287;28;20230;-75
2023/07/14 03:28:52;;;;;;;8.30;5.60;;;16.50;99.90;;;;;;5013430;28;20556;-77
2023/07/14 03:31:19;;;;;;;7.43;5.30;;;16.60;99.90;;;;;;5029322;28;20208;-76
2023/07/14 03:33:46;;;;;;;6.17;4.83;;;16.60;99.90;;;;;;5031500;28;20248;-74
2023/07/14 03:36:13;;;;;;;6.53;4.83;;;16.60;99.90;;;;;;5026488;28;20626;-75
2023/07/14 03:38:43;;;;;;;8.57;6.60;;;16.60;99.90;;;;;;5026129;28;20336;-76
2023/07/14 03:41:11;;;;;;;7.77;5.43;;;16.60;99.90;;;;;;5015124;28;20248;-76
2023/07/14 03:43:39;;;;;;;9.00;5.23;;;16.60;99.90;;;;;;5007918;28;20210;-76
2023/07/14 03:46:07;;;;;;;9.30;5.73;;;16.60;99.90;;;;;;5011171;28;20268;-77
2023/07/14 03:48:34;;;;;;;7.50;5.57;;;16.60;99.90;;;;;;5011821;28;20902;-77
2023/07/14 03:51:03;;;;;;;9.47;6.30;;;16.60;99.90;;;;;;5011239;28;20627;-76
2023/07/14 03:53:30;;;;;;;10.93;5.80;;;16.60;99.90;;;;;;5012045;28;20298;-77
2023/07/14 03:55:57;;;;;;;8.63;5.57;;;16.50;99.90;;;;;;5010547;28;20233;-77
2023/07/14 03:58:24;;;;;;;8.87;5.60;;;16.50;99.90;;;;;;5009960;28;20225;-77
2023/07/14 04:00:51;;;;;;;9.60;5.87;;;16.50;99.90;;;;;;5010043;28;20297;-76
2023/07/14 04:03:18;;;;;;;9.53;6.40;;;16.50;99.90;;;;;;5004450;28;20215;-78
2023/07/14 04:05:48;;;;;;;8.10;5.33;;;16.50;99.90;;;;;;5016959;28;20245;-76
2023/07/14 04:08:15;;;;;;;7.73;5.53;;;16.50;99.90;;;;;;4998061;28;20264;-76
2023/07/14 04:10:42;;;;;;;8.47;5.90;;;16.60;99.90;;;;;;5020370;28;20281;-78
2023/07/14 04:13:10;;;;;;;10.53;6.13;;;16.60;99.90;;;;;;5013472;28;20691;-77
2023/07/14 04:15:36;;;;;;;9.13;5.67;;;16.50;99.90;;;;;;5007804;28;20217;-76
2023/07/14 04:18:03;;;;;;;8.80;5.37;;;16.60;99.90;;;;;;5003490;28;20236;-78
2023/07/14 04:20:30;;;;;;;6.43;5.07;;;16.60;99.90;;;;;;5005922;28;20228;-78
2023/07/14 04:22:57;;;;;;;7.67;5.47;;;16.60;99.90;;;;;;5015553;28;20218;-77
2023/07/14 04:25:25;;;;;;;8.53;5.57;;;16.60;99.90;;;;;;5009322;28;20194;-76
2023/07/14 04:27:53;;;;;;;7.80;5.57;;;16.60;99.90;;;;;;5022693;28;20229;-77
2023/07/14 04:30:21;;;;;;;9.37;5.70;;;16.70;99.90;;;;;;5010268;28;20237;-77
2023/07/14 04:32:48;;;;;;;8.80;5.93;;;16.70;99.90;;;;;;4988895;28;20215;-78
2023/07/14 04:35:14;;;;;;;10.90;6.23;;;16.70;99.90;;;;;;4999337;28;20276;-76
2023/07/14 04:37:41;;;;;;;9.77;6.10;;;16.70;99.90;;;;;;5008360;28;20211;-78
2023/07/14 04:40:10;;;;;;;8.30;5.97;;;16.80;99.90;;;;;;5018120;28;20234;-75
2023/07/14 04:42:56;;;;;;;7.67;5.43;;;16.80;99.90;;;;;;5026198;28;20364;-76
2023/07/14 04:45:22;;;;;;;8.30;5.53;;;16.80;99.90;;;;;;5030169;28;20218;-77
2023/07/14 04:47:50;;;;;;;8.87;5.90;;;16.90;99.90;;;;;;5010010;28;20292;-77
2023/07/14 04:50:18;;;;;;;8.07;6.30;;;16.90;99.90;;;;;;5029340;28;20297;-75
2023/07/14 04:52:45;;;;;;;8.97;5.73;;;16.90;99.90;;;;;;5025986;28;20206;-76
2023/07/14 04:55:11;;;;;;;11.03;6.30;;;16.90;99.90;;;;;;5030113;28;20268;-75
2023/07/14 04:57:38;;;;;;;9.17;6.60;;;17.00;99.90;;;;;;5026553;28;20284;-76
2023/07/14 05:00:06;;;;;;;7.93;5.80;;;17.00;99.90;;;;;;5024535;28;20225;-76
2023/07/14 05:02:33;;;;;;;8.88;6.40;;;17.10;99.90;;;;;;5027256;28;20229;-75
2023/07/14 05:05:13;;;;;;;9.30;6.35;;;17.10;99.90;;;;;;5025268;28;20267;-77
2023/07/14 05:07:40;;;;;;;9.00;5.80;;;17.10;99.90;;;;;;5020634;28;20563;-76
2023/07/14 05:10:08;;;;;;;8.75;6.22;;;17.10;99.90;;;;;;5021806;28;20217;-76
2023/07/14 05:12:34;;;;;;;10.65;5.95;;;17.10;99.90;;;;;;5019540;28;20268;-78
2023/07/14 05:15:06;;;;;;;9.85;6.45;;;17.10;99.90;;;;;;5008603;28;20214;-76
2023/07/14 05:17:34;;;;;;;8.87;6.73;;;17.20;99.90;;;;;;5028505;28;20305;-76
2023/07/14 05:20:01;;;;;;;12.38;6.93;;;17.20;99.90;;;;;;5028440;28;20248;-76
2023/07/14 05:22:28;;;;;;;9.15;6.70;;;17.30;99.90;;;;;;5027955;28;20210;-75
2023/07/14 05:24:55;;;;;;;12.63;7.50;;;17.30;99.90;;;;;;5027883;28;20232;-78
2023/07/14 05:27:22;;;;;;;9.52;6.28;;;17.30;99.90;;;;;;5022786;28;20218;-77
2023/07/14 05:29:49;;;;;;;12.93;7.10;;;17.40;99.90;;;;;;5027836;28;20268;-76
2023/07/14 05:32:16;;;;;;;10.52;6.78;;;17.40;99.90;;;;;;5010413;28;20252;-76
2023/07/14 05:34:43;;;;;;;9.00;6.45;;;17.50;99.90;;;;;;5027014;28;20212;-77
2023/07/14 05:37:11;;;;;;;10.23;6.20;;;17.60;99.90;;;;;;5019953;28;20260;-77
2023/07/14 05:39:38;;;;;;;9.90;5.63;;;17.90;99.90;;;;;;5015460;28;20239;-78
2023/07/14 05:42:05;;;;;;;8.52;5.80;;;18.70;99.90;;;;;;5004576;28;20578;-78
2023/07/14 05:44:32;;;;;;;11.30;6.28;;;19.70;99.90;;;;;;4996815;28;20257;-75
2023/07/14 05:46:59;;;;;;;7.88;5.28;;;20.70;99.90;;;;;;5008223;28;20207;-76
2023/07/14 05:49:26;;;;;;;7.75;4.72;;;21.70;99.90;;;;;;5008472;28;20229;-75
2023/07/14 05:51:53;;;;;;;7.63;5.20;;;22.60;99.90;;;;;;5008841;28;20718;-76
2023/07/14 05:54:21;;;;;;;6.57;4.63;;;23.40;99.90;;;;;;5011265;28;20213;-76
2023/07/14 05:56:48;;;;;;;8.82;4.13;;;24.20;99.90;;;;;;5006295;28;20227;-77
2023/07/14 05:59:14;;;;;;;5.65;3.40;;;24.80;99.90;;;;;;4994055;28;20281;-76
2023/07/14 06:01:42;;;;;;;6.72;3.67;;;25.20;99.90;;;;;;4993752;28;20293;-76
2023/07/14 06:04:10;;;;;;;5.97;3.47;;;25.70;99.90;;;;;;4998790;28;20207;-78
2023/07/14 06:06:37;;;;;;;4.97;3.22;;;26.30;99.90;;;;;;4984025;28;20680;-78
2023/07/14 06:09:05;;;;;;;5.50;3.15;;;26.80;99.90;;;;;;4992762;28;20266;-77
2023/07/14 06:11:31;;;;;;;5.25;3.17;;;27.30;99.90;;;;;;4995790;28;20699;-78
2023/07/14 06:13:58;;;;;;;4.75;3.50;;;27.40;99.90;;;;;;4998637;28;20222;-78
2023/07/14 06:16:25;;;;;;;4.40;2.95;;;27.60;99.90;;;;;;5000723;28;20218;-76
2023/07/14 06:18:52;;;;;;;8.20;3.63;;;27.60;99.90;;;;;;4992998;28;20211;-77
2023/07/14 06:21:19;;;;;;;5.72;3.40;;;27.50;99.90;;;;;;4997351;28;20253;-77
2023/07/14 06:23:46;;;;;;;5.57;2.97;;;27.10;99.90;;;;;;4976516;28;20215;-79
2023/07/14 06:26:14;;;;;;;4.15;2.70;;;27.50;99.90;;;;;;5000358;28;20547;-78
2023/07/14 06:28:42;;;;;;;4.50;2.80;;;27.80;99.90;;;;;;4998093;28;20203;-77
2023/07/14 06:31:12;;;;;;;5.10;2.83;;;28.30;99.90;;;;;;5001527;28;20828;-77
2023/07/14 06:33:40;;;;;;;5.80;3.03;;;28.80;99.90;;;;;;4998895;28;20235;-77
2023/07/14 06:36:08;;;;;;;5.15;2.88;;;28.80;99.90;;;;;;5001497;28;20240;-75
2023/07/14 06:38:41;;;;;;;4.53;2.60;;;28.00;99.90;;;;;;5006932;28;20222;-79
2023/07/14 06:41:08;;;;;;;4.15;2.53;;;27.80;99.90;;;;;;5026038;28;20241;-77
2023/07/14 06:43:36;;;;;;;5.82;2.60;;;27.80;99.90;;;;;;5024756;28;20260;-78
2023/07/14 06:46:03;;;;;;;5.78;3.05;;;27.90;99.90;;;;;;5027039;28;20217;-77
2023/07/14 06:48:30;;;;;;;5.57;2.80;;;27.70;99.90;;;;;;5024665;28;20272;-78
2023/07/14 06:50:57;;;;;;;3.05;2.22;;;27.30;99.90;;;;;;5021645;28;20663;-76
2023/07/14 06:53:24;;;;;;;4.15;2.13;;;27.30;99.90;;;;;;5009957;28;20197;-78
2023/07/14 06:55:51;;;;;;;4.88;2.25;;;27.50;99.90;;;;;;5023587;28;20249;-77
2023/07/14 06:58:19;;;;;;;3.92;2.35;;;27.70;99.90;;;;;;5026352;28;20230;-76
2023/07/14 07:00:46;;;;;;;4.65;2.92;;;27.80;99.90;;;;;;5025953;28;20222;-79
2023/07/14 07:03:13;;;;;;;4.10;2.33;;;27.90;99.90;;;;;;5025670;28;20202;-77
2023/07/14 07:05:43;;;;;;;7.25;2.85;;;27.70;99.90;;;;;;5030711;28;20202;-80
2023/07/14 07:08:14;;;;;;;3.97;2.58;;;28.00;99.90;;;;;;5005273;28;20209;-78
2023/07/14 07:10:42;;;;;;;7.47;2.85;;;28.30;99.90;;;;;;5037116;28;20632;-79
2023/07/14 07:13:11;;;;;;;5.03;2.22;;;28.30;99.90;;;;;;5030311;28;20214;-78
2023/07/14 07:15:39;;;;;;;3.58;2.20;;;28.40;99.90;;;;;;5021323;28;20206;-79
2023/07/14 07:18:07;;;;;;;3.50;2.15;;;28.80;99.90;;;;;;5026524;28;20216;-78
2023/07/14 07:20:41;;;;;;;4.85;2.20;;;29.10;99.90;;;;;;5008636;28;20270;-77
2023/07/14 07:23:08;;;;;;;3.78;2.55;;;29.40;99.90;;;;;;5020632;28;20216;-78
2023/07/14 07:25:35;;;;;;;5.95;2.65;;;29.60;99.90;;;;;;5023555;28;20206;-77
2023/07/14 07:28:03;;;;;;;3.15;2.25;;;29.80;99.90;;;;;;5004446;28;20284;-79
2023/07/14 07:30:31;;;;;;;4.40;2.55;;;29.90;99.90;;;;;;5026661;28;20264;-78
2023/07/14 07:32:58;;;;;;;4.43;1.80;;;29.90;99.90;;;;;;5027502;28;20308;-78
2023/07/14 07:35:26;;;;;;;3.58;2.00;;;29.70;99.50;;;;;;5024934;28;20209;-77
2023/07/14 07:37:53;;;;;;;3.05;1.88;;;29.60;98.80;;;;;;5023045;28;20688;-80
2023/07/14 07:40:20;;;;;;;2.80;2.00;;;29.40;98.50;;;;;;5025765;28;20996;-77
2023/07/14 07:42:47;;;;;;;4.63;2.25;;;29.40;98.30;;;;;;5006039;28;20245;-76
2023/07/14 07:45:16;;;;;;;5.25;2.63;;;29.50;98.20;;;;;;5021493;28;20263;-77
2023/07/14 07:47:45;;;;;;;2.33;1.85;;;29.70;97.90;;;;;;5025251;28;20756;-77
2023/07/14 07:50:12;;;;;;;4.22;2.40;;;29.80;97.20;;;;;;5023367;28;20566;-78
2023/07/14 07:52:40;;;;;;;2.83;2.15;;;29.50;97.00;;;;;;5002910;28;20647;-79
2023/07/14 07:55:08;;;;;;;3.63;2.35;;;29.70;97.20;;;;;;5006355;28;20210;-78
2023/07/14 07:57:34;;;;;;;5.30;2.38;;;29.70;97.30;;;;;;5024404;28;20257;-80
2023/07/14 08:00:03;;;;;;;4.65;2.33;;;29.60;96.80;;;;;;5023845;28;20644;-77
2023/07/14 08:02:30;;;;;;;3.47;1.90;;;29.60;96.80;;;;;;5006896;28;20206;-78
2023/07/14 08:04:57;;;;;;;4.95;2.08;;;29.50;96.70;;;;;;5021620;28;20217;-77
2023/07/14 08:07:24;;;;;;;3.05;1.90;;;29.60;96.40;;;;;;5023420;28;20255;-76
2023/07/14 08:09:53;;;;;;;3.38;2.00;;;29.40;95.60;;;;;;5026889;28;20217;-77
2023/07/14 08:12:20;;;;;;;3.45;1.90;;;29.20;95.20;;;;;;5028171;28;20589;-78
2023/07/14 08:14:50;;;;;;;3.35;1.83;;;29.10;95.50;;;;;;5013495;28;20217;-77
2023/07/14 08:17:21;;;;;;;4.97;2.05;;;29.00;95.60;;;;;;5020283;28;20209;-76
2023/07/14 08:19:48;;;;;;;4.00;2.08;;;28.90;95.40;;;;;;5014509;28;20206;-76
2023/07/14 08:22:15;;;;;;;3.17;1.85;;;28.60;95.20;;;;;;5029698;28;20217;-77
2023/07/14 08:24:42;;;;;;;3.70;1.73;;;28.10;95.00;;;;;;5029259;28;20751;-76
2023/07/14 08:27:09;;;;;;;2.83;1.92;;;27.60;95.50;;;;;;5029708;28;20280;-78
2023/07/14 08:29:36;;;;;;;3.92;2.05;;;27.90;96.20;;;;;;5028440;28;20207;-77
2023/07/14 08:32:03;;;;;;;3.40;1.92;;;28.00;95.90;;;;;;5029389;28;20229;-78
2023/07/14 08:34:30;;;;;;;4.13;2.00;;;28.00;96.10;;;;;;5013964;28;20261;-77
2023/07/14 08:36:57;;;;;;;3.35;2.00;;;27.90;95.80;;;;;;5027482;28;20237;-78
2023/07/14 08:39:23;;;;;;;3.03;1.77;;;28.30;96.00;;;;;;5028699;28;20226;-77
2023/07/14 08:41:56;;;;;;;2.42;1.75;;;27.70;96.00;;;;;;5028542;28;20237;-77
2023/07/14 08:44:44;;;;;;;2.28;1.67;;;27.60;96.20;;;;;;5023784;28;20213;-77
2023/07/14 08:47:21;;;;;;;3.13;1.75;;;27.20;96.50;;;;;;5018341;28;20221;-77
2023/07/14 08:49:56;;;;;;;2.83;1.63;;;26.90;96.60;;;;;;5017768;28;20217;-78
2023/07/14 08:52:29;;;;;;;3.30;1.58;;;27.10;96.90;;;;;;5028842;28;20674;-77
2023/07/14 08:55:09;;;;;;;3.92;1.80;;;27.40;97.10;;;;;;5009441;28;20685;-78
2023/07/14 08:58:10;;;;;;;2.72;1.60;;;27.50;96.70;;;;;;5021864;28;20225;-77
2023/07/14 09:00:39;;;;;;;2.15;1.70;;;27.30;96.20;;;;;;5029101;28;20233;-77
2023/07/14 09:03:19;;;;;;;2.88;1.83;;;27.00;96.40;;;;;;5004884;28;20207;-79
2023/07/14 09:05:50;;;;;;;2.42;1.63;;;27.20;96.90;;;;;;5018888;28;20207;-77
2023/07/14 09:08:17;;;;;;;3.13;1.30;;;27.40;96.90;;;;;;5005044;28;20220;-78
2023/07/14 09:10:50;;;;;;;2.70;1.67;;;27.30;96.30;;;;;;5029791;28;20272;-77
2023/07/14 09:13:33;;;;;;;2.83;1.85;;;27.00;96.60;;;;;;5026346;28;20284;-79
2023/07/14 09:16:01;;;;;;;3.60;2.20;;;26.90;96.60;;;;;;5030007;28;20213;-76
2023/07/14 09:18:38;;;;;;;2.63;1.50;;;26.70;97.40;;;;;;5029084;28;20201;-76
2023/07/14 09:21:24;;;;;;;5.22;2.10;;;26.50;97.60;;;;;;5019739;28;20230;-77
2023/07/14 09:24:15;;;;;;;2.38;1.58;;;26.40;97.70;;;;;;5023192;28;20701;-78
2023/07/14 09:26:44;;;;;;;2.47;1.60;;;;;;;;;;5028529;28;20763;-76
2023/07/14 09:29:19;;;;;;;4.22;1.85;;;25.50;98.40;;;;;;5025050;28;20217;-77
2023/07/14 09:31:59;;;;;;;2.17;1.50;;;25.20;99.50;;;;;;5029026;28;20217;-78
2023/07/14 09:34:32;;;;;;;2.95;1.38;;;24.80;99.40;;;;;;5025538;28;20311;-79
2023/07/14 09:37:01;;;;;;;5.30;2.10;;;24.70;99.90;;;;;;5029190;28;20213;-76
2023/07/14 09:39:35;;;;;;;3.53;2.15;;;24.70;99.90;;;;;;5005402;28;20747;-77
2023/07/14 09:42:06;;;;;;;2.90;1.98;;;24.80;99.90;;;;;;5004958;28;20238;-76
2023/07/14 09:44:34;;;;;;;4.47;2.00;;;24.90;99.90;;;;;;5007856;28;20261;-76
2023/07/14 09:47:04;;;;;;;3.40;1.92;;;24.80;99.90;;;;;;5005624;28;20219;-76
2023/07/14 09:49:41;;;;;;;3.38;1.77;;;24.80;99.90;;;;;;5008217;28;20222;-78
2023/07/14 09:52:20;;;;;;;3.08;1.95;;;24.90;99.90;;;;;;4999400;28;20229;-77
2023/07/14 09:54:57;;;;;;;4.50;1.73;;;25.00;99.90;;;;;;5001849;28;20552;-77
2023/07/14 09:57:34;;;;;;;4.13;2.20;;;25.30;99.90;;;;;;5006808;28;20309;-75
2023/07/14 10:00:38;;;;;;;4.43;1.73;;;25.60;99.90;;;;;;5005257;28;20207;-77
2023/07/14 10:03:11;;;;;;;3.50;2.00;;;25.90;99.90;;;;;;4997371;28;20622;-76
2023/07/14 10:05:52;;;;;;;4.28;2.40;;;25.90;99.90;;;;;;5005473;28;20550;-76
2023/07/14 10:08:44;;;;;;;4.90;2.33;;;26.30;99.90;;;;;;4993415;28;20218;-76
2023/07/14 10:11:17;;;;;;;2.72;2.00;;;26.30;99.90;;;;;;4994393;28;20246;-76
2023/07/14 10:13:57;;;;;;;3.85;1.80;;;26.40;99.90;;;;;;5004775;28;20210;-77
2023/07/14 10:16:32;;;;;;;4.13;1.98;;;26.40;99.90;;;;;;5007548;28;20225;-78
2023/07/14 10:19:05;;;;;;;4.70;2.13;;;26.50;99.90;;;;;;5007674;28;20242;-77
2023/07/14 10:21:34;;;;;;;3.50;2.10;;;26.50;99.90;;;;;;5006211;28;20226;-76
2023/07/14 10:24:18;;;;;;;3.90;2.42;;;26.40;99.90;;;;;;5001223;28;20644;-76
2023/07/14 10:27:01;;;;;;;2.70;1.98;;;26.50;99.20;;;;;;5003681;28;20233;-76
2023/07/14 10:30:02;;;;;;;3.30;1.73;;;26.50;99.80;;;;;;5005184;28;20211;-76
2023/07/14 10:32:40;;;;;;;2.97;1.77;;;26.50;99.90;;;;;;4998848;28;20215;-77
2023/07/14 10:35:18;;;;;;;3.00;1.90;;;26.70;99.90;;;;;;5008425;28;20214;-76
2023/07/14 10:37:51;;;;;;;3.20;1.80;;;26.60;99.60;;;;;;5000997;28;20210;-78
2023/07/14 10:40:22;;;;;;;3.60;1.90;;;26.60;99.90;;;;;;5010063;28;20267;-77
2023/07/14 10:42:58;;;;;;;4.63;1.83;;;26.70;99.90;;;;;;5023037;28;20223;-75
2023/07/14 10:45:28;;;;;;;6.38;2.08;;;26.80;99.90;;;;;;5025062;28;20209;-76
2023/07/14 10:48:02;;;;;;;6.30;2.85;;;26.90;99.90;;;;;;5017917;28;20698;-77
2023/07/14 10:50:58;;;;;;;4.38;1.92;;;27.10;99.80;;;;;;5026301;28;20218;-76
2023/07/14 10:53:34;;;;;;;3.38;2.00;;;27.10;98.80;;;;;;5024288;28;20229;-77
2023/07/14 10:56:06;;;;;;;6.13;1.95;;;26.80;98.50;;;;;;5026970;28;20197;-76
2023/07/14 10:58:53;;;;;;;3.00;2.10;;;26.70;99.00;;;;;;5010411;28;20283;-75
2023/07/14 11:01:37;;;;;;;2.88;1.83;;;26.70;99.10;;;;;;5014455;28;20241;-76
2023/07/14 11:04:31;;;;;;;3.70;1.75;;;26.50;99.20;;;;;;5019121;28;20744;-77
2023/07/14 11:07:00;;;;;;;2.90;1.75;;;26.60;99.90;;;;;;5012880;28;20678;-76
2023/07/14 11:09:28;;;;;;;4.43;1.67;;;26.60;99.80;;;;;;5024975;28;20205;-76
2023/07/14 11:12:11;;;;;;;2.25;1.67;;;26.60;99.60;;;;;;5015991;28;20284;-75
2023/07/14 11:15:09;;;;;;;3.50;2.08;;;26.80;99.60;;;;;;5027153;28;20832;-75
2023/07/14 11:17:48;;;;;;;3.10;1.98;;;26.50;99.00;;;;;;5016871;28;20551;-77
2023/07/14 11:20:36;;;;;;;3.15;1.80;;;26.20;99.60;;;;;;5022479;28;20208;-76
2023/07/14 11:23:23;;;;;;;4.05;1.80;;;26.00;99.40;;;;;;5026187;28;20222;-77
2023/07/14 11:26:04;;;;;;;2.40;1.83;;;25.70;99.60;;;;;;5020988;28;20304;-78
2023/07/14 11:28:44;;;;;;;5.10;2.17;;;25.40;99.90;;;;;;5026068;28;20236;-76
2023/07/14 11:31:27;;;;;;;3.60;1.70;;;25.00;99.90;;;;;;5025421;28;20233;-78
2023/07/14 11:33:57;;;;;;;2.58;1.67;;;24.90;99.90;;;;;;5023342;28;20702;-78
2023/07/14 11:36:36;;;;;;;2.88;1.60;;;24.80;99.90;;;;;;5025261;28;20255;-78
2023/07/14 11:39:18;;;;;;;2.85;1.83;;;24.90;99.90;;;;;;5005816;28;20242;-78
2023/07/14 11:41:46;;;;;;;2.40;1.60;;;25.00;99.90;;;;;;5003896;28;20238;-78
2023/07/14 11:44:18;;;;;;;2.85;1.65;;;24.90;99.90;;;;;;5007010;28;20209;-78
2023/07/14 11:46:45;;;;;;;2.45;1.52;;;24.90;99.90;;;;;;5023754;28;20673;-76
2023/07/14 11:49:25;;;;;;;2.22;1.85;;;25.10;99.90;;;;;;4999951;28;20581;-76
2023/07/14 11:51:56;;;;;;;3.90;1.85;;;25.20;99.90;;;;;;5008537;28;20200;-77
2023/07/14 11:55:04;;;;;;;2.83;1.80;;;25.40;99.90;;;;;;5008367;28;20211;-77
2023/07/14 11:57:50;;;;;;;2.90;1.90;;;25.60;99.10;;;;;;5009021;28;20317;-80
2023/07/14 12:00:20;;;;;;;2.55;1.67;;;25.60;99.60;;;;;;5009393;28;20206;-77
2023/07/14 12:03:28;;;;;;;3.00;1.73;;;25.60;99.90;;;;;;5010778;28;20226;-76
2023/07/14 12:06:47;;;;;;;4.15;2.40;;;25.60;99.50;;;;;;4997035;28;20202;-75
2023/07/14 12:09:16;;;;;;;2.95;1.75;;;25.50;98.90;;;;;;4999850;28;20206;-78
2023/07/14 12:11:56;;;;;;;3.75;2.22;;;25.50;99.40;;;;;;5008279;28;20298;-77
2023/07/14 12:14:30;;;;;;;2.85;1.83;;;25.60;99.30;;;;;;5008970;28;20291;-76
2023/07/14 12:16:58;;;;;;;2.80;2.03;;;25.70;99.40;;;;;;5007001;28;20292;-77
2023/07/14 12:19:31;;;;;;;2.78;1.77;;;25.90;99.20;;;;;;5001716;28;20296;-77
2023/07/14 12:22:09;;;;;;;3.90;1.90;;;26.00;98.80;;;;;;5003581;28;20348;-78
2023/07/14 12:24:48;;;;;;;2.55;1.83;;;26.10;98.60;;;;;;5007205;28;20211;-77
2023/07/14 12:27:52;;;;;;;2.47;2.03;;;26.30;98.00;;;;;;5008304;28;20218;-76
2023/07/14 12:30:29;;;;;;;1.95;1.40;;;26.40;96.60;;;;;;5008517;28;20686;-79
2023/07/14 12:33:03;;;;;;;3.13;2.20;;;26.60;96.80;;;;;;5005009;28;20257;-77
2023/07/14 12:35:32;;;;;;;4.05;1.77;;;26.90;96.90;;;;;;5001409;28;20272;-77
2023/07/14 12:38:19;;;;;;;3.33;1.90;;;27.00;97.20;;;;;;5000913;28;20221;-77
2023/07/14 12:40:48;;;;;;;3.95;2.30;;;27.40;96.60;;;;;;5023569;28;20251;-79
2023/07/14 12:43:21;;;;;;;2.53;1.88;;;27.60;96.30;;;;;;5022333;28;20258;-78
2023/07/14 12:45:48;;;;;;;2.50;1.98;;;27.80;96.10;;;;;;5015032;28;20297;-76
2023/07/14 12:48:15;;;;;;;2.78;1.70;;;27.90;95.90;;;;;;5024919;28;20725;-77
2023/07/14 12:50:44;;;;;;;3.20;1.90;;;28.00;95.70;;;;;;5029784;28;20205;-77
2023/07/14 12:53:16;;;;;;;3.33;1.70;;;28.20;95.50;;;;;;5012339;28;20263;-78
2023/07/14 12:55:45;;;;;;;3.03;1.90;;;28.10;95.10;;;;;;5025542;28;20261;-77
2023/07/14 12:58:23;;;;;;;3.47;1.80;;;28.30;95.10;;;;;;5021874;28;20217;-78
2023/07/14 13:00:54;;;;;;;2.95;2.08;;;28.40;94.40;;;;;;5023348;28;20642;-77
2023/07/14 13:03:23;;;;;;;2.80;2.13;;;28.40;94.70;;;;;;5029542;28;20296;-77
2023/07/14 13:05:51;;;;;;;2.47;1.70;;;28.50;94.60;;;;;;5024689;28;20202;-78
2023/07/14 13:08:27;;;;;;;3.30;2.10;;;28.50;94.60;;;;;;5028063;28;20221;-78
2023/07/14 13:10:55;;;;;;;3.00;1.90;;;28.40;94.90;;;;;;5028835;28;20209;-78